Time;durP1;ratioP1;P1;durP2;ratioP2;P2;SDS_P1;SDS_P2;PMS_P1;PMS_P2;Temp;Humidity;BMP_temperature;BMP_pressure;BME280_temperature;BME280_humidity;BME280_pressure;Samples;Min_cycle;Max_cycle;Signal;HPM_P1;HPM_P2
2023/07/16 00:00:27;;;;;;;17.67;3.70;;;15.50;99.90;;;;;;4945204;29;20070;-79
2023/07/16 00:02:53;;;;;;;19.88;3.85;;;15.50;99.90;;;;;;4936553;29;20038;-77
2023/07/16 00:05:18;;;;;;;26.33;4.78;;;15.50;99.90;;;;;;4942406;29;20075;-79
2023/07/16 00:07:44;;;;;;;22.70;3.47;;;15.50;99.90;;;;;;4937875;29;20052;-78
2023/07/16 00:10:10;;;;;;;24.73;4.07;;;15.50;99.90;;;;;;4944060;29;20141;-80
2023/07/16 00:12:35;;;;;;;14.25;3.45;;;15.40;99.90;;;;;;4944194;29;20183;-79
2023/07/16 00:15:01;;;;;;;23.92;3.55;;;15.50;99.90;;;;;;4945115;29;20110;-79
2023/07/16 00:17:26;;;;;;;23.98;3.85;;;15.50;99.90;;;;;;4960064;28;20041;-79
2023/07/16 00:19:52;;;;;;;20.55;3.63;;;15.50;99.90;;;;;;4938181;29;20032;-79
2023/07/16 00:22:18;;;;;;;23.70;3.50;;;15.50;99.90;;;;;;4934051;29;20041;-80
2023/07/16 00:24:43;;;;;;;28.65;4.00;;;15.50;99.90;;;;;;4939206;29;20436;-80
2023/07/16 00:27:09;;;;;;;23.25;4.32;;;15.50;99.90;;;;;;4939167;29;20043;-77
2023/07/16 00:29:34;;;;;;;22.27;3.70;;;15.50;99.90;;;;;;4943244;29;20051;-79
2023/07/16 00:32:00;;;;;;;20.75;3.40;;;15.50;99.90;;;;;;4944949;29;20031;-80
2023/07/16 00:34:25;;;;;;;22.52;3.35;;;15.50;99.90;;;;;;4944603;29;20077;-79
2023/07/16 00:36:51;;;;;;;26.95;4.32;;;15.60;99.90;;;;;;4940686;29;20110;-79
2023/07/16 00:39:16;;;;;;;26.02;3.67;;;15.60;99.90;;;;;;4925435;29;20065;-78
2023/07/16 00:41:42;;;;;;;19.30;2.92;;;15.70;99.90;;;;;;4934631;29;20035;-78
2023/07/16 00:44:07;;;;;;;19.48;3.20;;;15.70;99.90;;;;;;4944788;29;20067;-80
2023/07/16 00:46:33;;;;;;;17.10;2.95;;;15.60;99.90;;;;;;4942465;29;20039;-79
2023/07/16 00:48:59;;;;;;;17.83;2.92;;;15.70;99.90;;;;;;4944127;29;20086;-80
2023/07/16 00:51:25;;;;;;;19.13;3.60;;;15.60;99.90;;;;;;4941457;29;20404;-80
2023/07/16 00:53:51;;;;;;;17.83;2.95;;;15.60;99.90;;;;;;4943740;29;20059;-80
2023/07/16 00:56:17;;;;;;;24.48;3.25;;;15.60;99.90;;;;;;4939245;28;20070;-79
2023/07/16 00:58:43;;;;;;;24.20;3.20;;;15.60;99.90;;;;;;4943533;29;20054;-80
2023/07/16 01:01:09;;;;;;;18.70;3.28;;;15.50;99.90;;;;;;4941896;29;20491;-80
2023/07/16 01:03:35;;;;;;;13.65;2.42;;;15.50;99.90;;;;;;4944061;29;20045;-79
2023/07/16 01:06:07;;;;;;;22.13;3.35;;;15.50;99.90;;;;;;4944652;29;20462;-78
2023/07/16 01:08:47;;;;;;;19.65;2.88;;;15.50;99.90;;;;;;4959291;28;20043;-79
2023/07/16 01:11:14;;;;;;;19.20;2.85;;;15.50;99.90;;;;;;4944870;29;20090;-79
2023/07/16 01:13:41;;;;;;;21.77;3.03;;;15.50;99.90;;;;;;4940000;29;20515;-79
2023/07/16 01:16:06;;;;;;;22.73;3.00;;;15.60;99.90;;;;;;4933302;29;20118;-80
2023/07/16 01:18:32;;;;;;;16.58;2.60;;;15.60;99.90;;;;;;4947914;29;20118;-79
2023/07/16 01:20:57;;;;;;;20.80;3.33;;;15.60;99.90;;;;;;4948010;29;20078;-78
2023/07/16 01:23:39;;;;;;;17.95;2.70;;;15.70;99.90;;;;;;4948149;29;20027;-79
2023/07/16 01:26:33;;;;;;;19.25;3.00;;;15.70;99.90;;;;;;4948314;29;20126;-79
2023/07/16 01:29:05;;;;;;;19.38;3.35;;;15.70;99.90;;;;;;4945714;29;20059;-79
2023/07/16 01:31:31;;;;;;;14.98;2.80;;;15.70;99.90;;;;;;4945999;29;20031;-78
2023/07/16 01:33:59;;;;;;;21.52;2.80;;;15.70;99.90;;;;;;4942695;29;20043;-78
2023/07/16 01:36:25;;;;;;;15.27;2.95;;;15.80;99.90;;;;;;4948467;29;20136;-81
2023/07/16 01:38:52;;;;;;;23.35;3.05;;;15.80;99.90;;;;;;4945426;28;20121;-77
2023/07/16 01:41:18;;;;;;;23.33;2.95;;;15.90;99.90;;;;;;4944559;29;20035;-78
2023/07/16 01:43:44;;;;;;;19.50;3.03;;;15.90;99.90;;;;;;4962074;28;20027;-78
2023/07/16 01:46:10;;;;;;;21.25;3.20;;;15.80;99.90;;;;;;4939137;29;20043;-79
2023/07/16 01:48:37;;;;;;;20.55;3.13;;;15.70;99.90;;;;;;4943460;29;20023;-78
2023/07/16 01:51:03;;;;;;;14.95;3.20;;;15.70;99.90;;;;;;4945504;29;20028;-79
2023/07/16 01:53:29;;;;;;;14.65;2.88;;;15.60;99.90;;;;;;4931467;29;20650;-78
2023/07/16 01:55:55;;;;;;;21.15;3.67;;;15.60;99.90;;;;;;4929784;29;20031;-79
2023/07/16 01:58:20;;;;;;;23.85;2.97;;;15.60;99.90;;;;;;4943071;29;20114;-79
2023/07/16 02:00:48;;;;;;;22.45;3.53;;;15.60;99.90;;;;;;4947542;29;20039;-77
2023/07/16 02:03:13;;;;;;;14.68;2.60;;;15.60;99.90;;;;;;4946571;29;20578;-79
2023/07/16 02:05:39;;;;;;;13.32;2.65;;;15.80;99.90;;;;;;4944045;29;20444;-79
2023/07/16 02:08:05;;;;;;;15.43;2.75;;;15.70;99.90;;;;;;4944767;28;20507;-79
2023/07/16 02:10:31;;;;;;;15.27;2.72;;;15.60;99.90;;;;;;4946112;29;20027;-79
2023/07/16 02:12:56;;;;;;;17.83;3.45;;;15.60;99.90;;;;;;4946465;29;20110;-80
2023/07/16 02:15:22;;;;;;;23.30;2.78;;;15.50;99.90;;;;;;4938836;29;20127;-79
2023/07/16 02:17:48;;;;;;;20.67;3.55;;;15.50;99.90;;;;;;4945992;28;20035;-80
2023/07/16 02:20:14;;;;;;;18.98;3.00;;;15.40;99.90;;;;;;4945663;28;20054;-80
2023/07/16 02:22:39;;;;;;;13.95;2.80;;;15.40;99.90;;;;;;4946954;29;20468;-81
2023/07/16 02:25:05;;;;;;;18.20;2.78;;;15.30;99.90;;;;;;4944434;29;20089;-82
2023/07/16 02:27:31;;;;;;;19.83;3.05;;;15.30;99.90;;;;;;4946456;28;20070;-79
2023/07/16 02:29:57;;;;;;;20.83;2.90;;;15.30;99.90;;;;;;4945214;29;20059;-80
2023/07/16 02:32:23;;;;;;;17.92;2.63;;;15.30;99.90;;;;;;4947340;29;20043;-79
2023/07/16 02:34:49;;;;;;;17.10;2.67;;;15.30;99.90;;;;;;4944341;29;20303;-79
2023/07/16 02:37:14;;;;;;;18.77;3.13;;;15.40;99.90;;;;;;4942256;29;20122;-79
2023/07/16 02:39:42;;;;;;;20.42;3.45;;;15.40;99.90;;;;;;4946620;29;20177;-80
2023/07/16 02:42:07;;;;;;;11.10;2.53;;;15.50;99.90;;;;;;4935003;28;20102;-81
2023/07/16 02:44:33;;;;;;;17.30;2.63;;;15.50;99.90;;;;;;4947232;29;20031;-79
2023/07/16 02:46:58;;;;;;;18.40;3.05;;;15.50;99.90;;;;;;4938304;29;20141;-79
2023/07/16 02:49:24;;;;;;;16.83;2.75;;;15.40;99.90;;;;;;4941990;28;20062;-79
2023/07/16 02:51:49;;;;;;;18.67;3.08;;;15.20;99.90;;;;;;4946353;29;20069;-79
2023/07/16 02:54:15;;;;;;;13.43;2.28;;;15.10;99.90;;;;;;4945810;29;20042;-79
2023/07/16 02:56:41;;;;;;;19.65;2.63;;;15.10;99.90;;;;;;4947051;28;20031;-79
2023/07/16 02:59:06;;;;;;;14.38;2.50;;;15.00;99.90;;;;;;4943550;28;20122;-79
2023/07/16 03:01:32;;;;;;;15.75;2.92;;;15.10;99.90;;;;;;4938815;29;20024;-79
2023/07/16 03:03:57;;;;;;;24.08;2.88;;;15.00;99.90;;;;;;4933577;29;20035;-80
2023/07/16 03:06:23;;;;;;;16.52;2.80;;;14.90;99.90;;;;;;4936649;29;20570;-80
2023/07/16 03:08:48;;;;;;;13.15;2.10;;;14.90;99.90;;;;;;4945440;29;20043;-79
2023/07/16 03:11:14;;;;;;;16.88;2.88;;;14.70;99.90;;;;;;4944655;29;20031;-80
2023/07/16 03:13:40;;;;;;;10.65;2.65;;;14.70;99.90;;;;;;4942028;28;20023;-81
2023/07/16 03:16:06;;;;;;;19.70;3.17;;;14.70;99.90;;;;;;4946716;29;20027;-80
2023/07/16 03:18:32;;;;;;;17.50;3.00;;;14.60;99.90;;;;;;4938935;29;20024;-80
2023/07/16 03:20:58;;;;;;;16.30;3.15;;;14.60;99.90;;;;;;4936680;29;20043;-78
2023/07/16 03:23:24;;;;;;;13.65;2.92;;;14.60;99.90;;;;;;4939612;29;20034;-79
2023/07/16 03:25:50;;;;;;;16.20;2.70;;;14.60;99.90;;;;;;4944134;29;20047;-79
2023/07/16 03:28:15;;;;;;;20.25;2.72;;;14.50;99.90;;;;;;4945855;29;20458;-80
2023/07/16 03:30:48;;;;;;;14.70;2.63;;;14.60;99.90;;;;;;4933883;28;20046;-80
2023/07/16 03:33:14;;;;;;;19.63;3.05;;;14.60;99.90;;;;;;4937162;29;20089;-81
2023/07/16 03:35:42;;;;;;;17.67;2.58;;;14.50;99.90;;;;;;4940561;29;20023;-79
2023/07/16 03:38:08;;;;;;;24.05;2.80;;;14.50;99.90;;;;;;4943419;29;20166;-81
2023/07/16 03:40:33;;;;;;;19.13;3.38;;;14.50;99.90;;;;;;4927580;29;20522;-80
2023/07/16 03:42:59;;;;;;;24.10;3.40;;;14.60;99.90;;;;;;4936005;29;20046;-79
2023/07/16 03:45:25;;;;;;;19.95;2.83;;;14.60;99.90;;;;;;4945412;29;20078;-80
2023/07/16 03:47:50;;;;;;;21.98;2.80;;;14.60;99.90;;;;;;4946696;28;20245;-79
2023/07/16 03:50:16;;;;;;;16.23;2.75;;;14.70;99.90;;;;;;4942486;28;20031;-79
2023/07/16 03:52:41;;;;;;;13.40;2.72;;;14.70;99.90;;;;;;4943143;29;20039;-79
2023/07/16 03:55:07;;;;;;;17.67;3.20;;;14.70;99.90;;;;;;4941443;29;20043;-80
2023/07/16 03:57:33;;;;;;;19.98;3.05;;;14.80;99.90;;;;;;4943169;29;20372;-78
2023/07/16 03:59:59;;;;;;;18.63;2.92;;;14.80;99.90;;;;;;4941923;29;20118;-78
2023/07/16 04:02:25;;;;;;;14.38;2.72;;;14.90;99.90;;;;;;4939264;29;20395;-78
2023/07/16 04:04:50;;;;;;;17.80;2.70;;;15.00;99.90;;;;;;4933318;29;20034;-79
2023/07/16 04:07:17;;;;;;;14.77;2.55;;;14.90;99.90;;;;;;4944447;29;20052;-79
2023/07/16 04:09:43;;;;;;;21.02;3.55;;;14.80;99.90;;;;;;4944184;29;20086;-79
2023/07/16 04:12:08;;;;;;;17.25;2.90;;;14.70;99.90;;;;;;4931087;29;20036;-80
2023/07/16 04:14:34;;;;;;;14.75;2.80;;;14.70;99.90;;;;;;4941806;29;20035;-80
2023/07/16 04:16:59;;;;;;;22.15;3.22;;;14.60;99.90;;;;;;4935469;29;20067;-79
2023/07/16 04:19:25;;;;;;;16.83;2.95;;;14.60;99.90;;;;;;4931149;29;20043;-81
2023/07/16 04:21:50;;;;;;;18.10;3.53;;;14.60;99.90;;;;;;4932247;29;20094;-80
2023/07/16 04:24:16;;;;;;;15.23;2.63;;;14.50;99.90;;;;;;4939173;29;20605;-78
2023/07/16 04:26:42;;;;;;;17.98;2.90;;;14.50;99.90;;;;;;4945577;29;20432;-81
2023/07/16 04:29:07;;;;;;;20.48;2.75;;;14.40;99.90;;;;;;4944446;29;20094;-79
2023/07/16 04:31:33;;;;;;;16.60;2.22;;;14.50;99.90;;;;;;4942963;29;20112;-78
2023/07/16 04:33:58;;;;;;;15.45;2.22;;;14.40;99.90;;;;;;4939322;29;20514;-80
2023/07/16 04:36:24;;;;;;;15.90;2.72;;;14.40;99.90;;;;;;4943180;29;20043;-79
2023/07/16 04:38:50;;;;;;;13.57;2.35;;;14.40;99.90;;;;;;4944101;29;20387;-80
2023/07/16 04:41:16;;;;;;;16.77;2.65;;;14.40;99.90;;;;;;4944566;29;20031;-79
2023/07/16 04:43:42;;;;;;;17.15;2.40;;;14.40;99.90;;;;;;4937269;28;20388;-80
2023/07/16 04:46:07;;;;;;;16.13;2.58;;;14.40;99.90;;;;;;4939348;29;20043;-79
2023/07/16 04:48:33;;;;;;;18.10;2.70;;;14.30;99.90;;;;;;4934553;29;20028;-79
2023/07/16 04:50:59;;;;;;;20.15;2.92;;;14.40;99.90;;;;;;4940275;29;20138;-80
2023/07/16 04:53:25;;;;;;;14.27;2.65;;;14.40;99.90;;;;;;4942676;28;20041;-78
2023/07/16 04:55:51;;;;;;;21.83;2.80;;;14.50;99.90;;;;;;4941301;29;20047;-80
2023/07/16 04:58:16;;;;;;;12.77;2.38;;;14.70;99.90;;;;;;4957707;28;20031;-80
2023/07/16 05:00:42;;;;;;;13.18;2.80;;;14.90;99.90;;;;;;4944285;29;20032;-79
2023/07/16 05:03:08;;;;;;;16.13;2.75;;;15.20;99.90;;;;;;4955684;28;20028;-78
2023/07/16 05:05:34;;;;;;;16.27;2.72;;;15.40;99.90;;;;;;4944560;29;20485;-79
2023/07/16 05:08:00;;;;;;;19.10;2.60;;;15.60;99.90;;;;;;4935134;29;20676;-80
2023/07/16 05:10:27;;;;;;;18.27;2.28;;;15.70;99.90;;;;;;4940902;29;20114;-79
2023/07/16 05:12:53;;;;;;;15.35;2.72;;;15.80;99.90;;;;;;4944540;29;20062;-79
2023/07/16 05:15:18;;;;;;;15.00;2.72;;;15.90;99.90;;;;;;4941415;29;20444;-78
2023/07/16 05:17:44;;;;;;;18.85;2.65;;;15.90;99.90;;;;;;4938487;29;20043;-79
2023/07/16 05:20:10;;;;;;;16.23;2.58;;;15.90;99.90;;;;;;4940606;29;20121;-80
2023/07/16 05:22:36;;;;;;;21.00;2.95;;;15.90;99.90;;;;;;4927117;29;20031;-80
2023/07/16 05:25:02;;;;;;;13.93;2.72;;;15.90;99.90;;;;;;4939561;29;20157;-80
2023/07/16 05:27:28;;;;;;;22.20;3.10;;;15.90;99.90;;;;;;4939499;29;20035;-81
2023/07/16 05:29:54;;;;;;;14.38;2.75;;;15.80;99.90;;;;;;4936516;29;20042;-82
2023/07/16 05:32:19;;;;;;;14.38;2.65;;;15.70;99.90;;;;;;4932947;29;20028;-82
2023/07/16 05:34:45;;;;;;;19.08;3.45;;;15.60;99.90;;;;;;4938843;29;20146;-81
2023/07/16 05:37:11;;;;;;;20.77;3.60;;;15.50;99.90;;;;;;4941122;29;20074;-80
2023/07/16 05:39:37;;;;;;;18.10;2.72;;;15.50;99.90;;;;;;4945256;29;20050;-80
2023/07/16 05:42:03;;;;;;;15.45;2.70;;;15.60;99.90;;;;;;4942557;28;20035;-81
2023/07/16 05:44:29;;;;;;;17.38;3.13;;;15.60;99.90;;;;;;4937795;29;20046;-81
2023/07/16 05:46:55;;;;;;;16.15;2.95;;;15.60;99.90;;;;;;4937403;29;20102;-80
2023/07/16 05:49:20;;;;;;;15.25;2.63;;;15.60;99.90;;;;;;4929554;29;20050;-80
2023/07/16 05:51:46;;;;;;;22.27;2.50;;;15.60;99.90;;;;;;4934024;29;20035;-80
2023/07/16 05:54:11;;;;;;;16.00;2.78;;;15.70;99.90;;;;;;4941841;28;20443;-81
2023/07/16 05:56:37;;;;;;;16.20;2.50;;;15.80;99.90;;;;;;4945733;29;20129;-80
2023/07/16 05:59:03;;;;;;;17.33;2.78;;;15.90;99.90;;;;;;4944138;29;20038;-81
2023/07/16 06:01:28;;;;;;;17.20;2.53;;;15.90;99.90;;;;;;4942670;28;20031;-80
2023/07/16 06:03:54;;;;;;;15.13;2.63;;;16.00;99.90;;;;;;4943097;29;20035;-80
2023/07/16 06:06:20;;;;;;;17.88;2.70;;;16.10;99.90;;;;;;4943054;29;20050;-79
2023/07/16 06:08:46;;;;;;;17.67;2.65;;;16.20;99.90;;;;;;4929951;29;20161;-80
2023/07/16 06:11:12;;;;;;;15.13;2.50;;;16.20;99.90;;;;;;4951082;28;20061;-79
2023/07/16 06:13:38;;;;;;;13.93;2.55;;;16.30;99.90;;;;;;4934650;28;20028;-80
2023/07/16 06:16:04;;;;;;;19.70;2.42;;;16.30;99.90;;;;;;4944580;28;20023;-81
2023/07/16 06:18:30;;;;;;;15.00;2.85;;;16.50;99.90;;;;;;4944845;29;20686;-82
2023/07/16 06:20:55;;;;;;;9.55;2.20;;;16.60;99.90;;;;;;4942122;29;20037;-79
2023/07/16 06:23:21;;;;;;;13.02;2.40;;;16.70;99.90;;;;;;4947135;29;20038;-80
2023/07/16 06:25:48;;;;;;;13.95;2.05;;;16.90;99.90;;;;;;4945650;29;20035;-80
2023/07/16 06:28:14;;;;;;;14.77;2.22;;;17.10;99.90;;;;;;4943847;29;20483;-80
2023/07/16 06:30:40;;;;;;;15.20;2.40;;;17.50;99.90;;;;;;4935827;29;20032;-77
2023/07/16 06:33:06;;;;;;;15.25;2.40;;;17.90;99.90;;;;;;4943162;28;20086;-81
2023/07/16 06:35:32;;;;;;;12.88;1.85;;;17.90;99.90;;;;;;4940079;29;20490;-81
2023/07/16 06:37:57;;;;;;;12.55;2.55;;;18.00;99.90;;;;;;4944071;29;20031;-80
2023/07/16 06:40:24;;;;;;;19.23;2.60;;;18.00;99.90;;;;;;4944278;29;20034;-80
2023/07/16 06:42:50;;;;;;;24.23;4.80;;;17.80;99.90;;;;;;4941224;29;20035;-80
2023/07/16 06:45:17;;;;;;;13.55;2.88;;;17.50;99.90;;;;;;4940447;29;20031;-81
2023/07/16 06:47:43;;;;;;;12.75;1.98;;;17.30;99.90;;;;;;4942654;29;20410;-78
2023/07/16 06:50:09;;;;;;;11.63;2.00;;;17.10;99.90;;;;;;4939999;28;20614;-80
2023/07/16 06:52:34;;;;;;;17.83;2.45;;;16.90;99.90;;;;;;4938577;29;20372;-81
2023/07/16 06:55:00;;;;;;;18.70;2.80;;;16.90;99.90;;;;;;4935535;29;20034;-80
2023/07/16 06:57:26;;;;;;;13.80;2.50;;;16.90;99.90;;;;;;4935578;29;20067;-80
2023/07/16 06:59:52;;;;;;;17.73;2.50;;;16.90;99.90;;;;;;4943384;28;20027;-80
2023/07/16 07:02:18;;;;;;;19.05;2.42;;;17.00;99.90;;;;;;4945099;29;20058;-80
2023/07/16 07:04:44;;;;;;;12.35;1.88;;;17.10;99.90;;;;;;4935349;29;20031;-79
2023/07/16 07:07:10;;;;;;;11.82;1.92;;;17.20;99.90;;;;;;4935046;29;20094;-82
2023/07/16 07:09:35;;;;;;;17.20;2.90;;;17.30;99.90;;;;;;4934781;29;20403;-82
2023/07/16 07:12:01;;;;;;;9.98;1.80;;;17.40;99.90;;;;;;4938401;29;20070;-82
2023/07/16 07:14:27;;;;;;;14.35;2.28;;;17.60;99.90;;;;;;4946375;29;20038;-82
2023/07/16 07:16:53;;;;;;;15.35;2.63;;;17.80;99.90;;;;;;4933630;28;20044;-78
2023/07/16 07:19:18;;;;;;;18.08;2.78;;;17.80;99.90;;;;;;4935340;29;20031;-81
2023/07/16 07:21:44;;;;;;;18.98;2.78;;;18.00;99.90;;;;;;4942668;29;20039;-80
2023/07/16 07:24:09;;;;;;;13.82;2.72;;;18.40;99.90;;;;;;4946051;29;20047;-82
2023/07/16 07:26:35;;;;;;;12.00;1.88;;;18.50;99.90;;;;;;4945672;29;20137;-82
2023/07/16 07:29:00;;;;;;;17.27;2.28;;;18.70;99.90;;;;;;4946468;29;20492;-81
2023/07/16 07:31:26;;;;;;;15.80;2.50;;;19.00;99.90;;;;;;4937597;29;20039;-83
2023/07/16 07:33:53;;;;;;;17.95;2.45;;;19.30;99.90;;;;;;4939184;29;20070;-80
2023/07/16 07:36:19;;;;;;;15.88;2.33;;;19.50;99.90;;;;;;4946048;29;20035;-80
2023/07/16 07:38:45;;;;;;;13.75;2.25;;;19.80;99.90;;;;;;4944304;29;20078;-79
2023/07/16 07:41:10;;;;;;;14.55;2.72;;;20.30;99.90;;;;;;4945544;29;20057;-82
2023/07/16 07:43:36;;;;;;;11.52;2.50;;;21.20;99.90;;;;;;4946112;29;20028;-79
2023/07/16 07:46:02;;;;;;;13.45;2.15;;;21.80;99.90;;;;;;4941574;29;20046;-80
2023/07/16 07:48:27;;;;;;;14.85;2.10;;;21.90;99.90;;;;;;4937119;29;20382;-80
2023/07/16 07:50:53;;;;;;;14.93;2.28;;;23.30;99.90;;;;;;4932229;29;20403;-81
2023/07/16 07:53:18;;;;;;;12.63;2.20;;;23.60;96.00;;;;;;4931843;29;20031;-82
2023/07/16 07:55:45;;;;;;;10.18;2.13;;;22.40;96.90;;;;;;4945329;29;20031;-81
2023/07/16 07:58:11;;;;;;;12.30;2.42;;;22.80;99.90;;;;;;4940604;29;20545;-81
2023/07/16 08:00:37;;;;;;;13.48;2.33;;;22.20;97.10;;;;;;4941995;29;20341;-83
2023/07/16 08:03:03;;;;;;;14.38;2.35;;;22.80;98.80;;;;;;4941594;29;20105;-81
2023/07/16 08:05:28;;;;;;;8.85;2.13;;;22.80;95.00;;;;;;4939623;29;20374;-82
2023/07/16 08:07:55;;;;;;;11.80;2.08;;;23.60;96.90;;;;;;4936041;29;20640;-81
2023/07/16 08:10:23;;;;;;;9.77;2.35;;;23.90;93.40;;;;;;4940992;29;20053;-83
2023/07/16 08:12:49;;;;;;;10.27;1.90;;;24.00;92.90;;;;;;4946122;28;20035;-82
2023/07/16 08:15:15;;;;;;;14.45;2.00;;;24.90;93.50;;;;;;4943721;29;20019;-83
2023/07/16 08:17:41;;;;;;;11.05;2.40;;;25.50;86.40;;;;;;4945871;28;20110;-83
2023/07/16 08:20:08;;;;;;;11.85;2.03;;;26.40;80.70;;;;;;4932851;29;20031;-81
2023/07/16 08:22:33;;;;;;;9.50;1.90;;;28.90;77.50;;;;;;4931927;29;20036;-83
2023/07/16 08:24:59;;;;;;;11.02;2.20;;;31.10;63.90;;;;;;4931259;29;20115;-81
2023/07/16 08:27:25;;;;;;;8.80;1.73;;;31.20;56.90;;;;;;4931791;29;20050;-84
2023/07/16 08:29:50;;;;;;;11.70;1.90;;;29.00;60.00;;;;;;4936157;29;20028;-81
2023/07/16 08:32:16;;;;;;;12.45;2.40;;;26.80;61.70;;;;;;4940233;29;20034;-84
2023/07/16 08:34:41;;;;;;;10.13;2.20;;;24.80;69.70;;;;;;4940601;29;20046;-83
2023/07/16 08:37:07;;;;;;;11.27;2.15;;;23.70;78.50;;;;;;4954258;28;20130;-84
2023/07/16 08:39:33;;;;;;;10.90;2.03;;;23.70;83.40;;;;;;4954655;28;20078;-82
2023/07/16 08:41:59;;;;;;;9.02;1.85;;;25.30;75.10;;;;;;4939864;29;20407;-84
2023/07/16 08:44:25;;;;;;;10.10;1.75;;;27.90;73.40;;;;;;4936917;29;20031;-80
2023/07/16 08:46:51;;;;;;;9.65;1.63;;;29.00;66.60;;;;;;4936144;29;20043;-82
2023/07/16 08:49:21;;;;;;;11.13;1.80;;;30.10;57.20;;;;;;4929981;29;20506;-82
2023/07/16 08:51:48;;;;;;;9.40;2.03;;;31.00;55.70;;;;;;4939885;29;20035;-83
2023/07/16 08:54:16;;;;;;;10.85;1.88;;;30.40;53.10;;;;;;4941308;29;20549;-82
2023/07/16 08:56:43;;;;;;;11.60;1.98;;;29.20;55.50;;;;;;4956313;28;20043;-81
2023/07/16 08:59:10;;;;;;;7.35;1.65;;;30.00;55.10;;;;;;4941835;29;20031;-82
2023/07/16 09:01:36;;;;;;;6.50;1.88;;;32.40;54.80;;;;;;4948596;28;20039;-82
2023/07/16 09:04:02;;;;;;;7.93;1.83;;;33.10;49.80;;;;;;4936831;29;20019;-82
2023/07/16 09:06:28;;;;;;;6.15;1.63;;;33.70;48.70;;;;;;4937496;29;20043;-84
2023/07/16 09:08:55;;;;;;;9.75;2.00;;;32.20;48.50;;;;;;4937566;29;20408;-81
2023/07/16 09:11:21;;;;;;;11.05;2.03;;;31.80;51.40;;;;;;4931046;29;20079;-82
2023/07/16 09:13:47;;;;;;;9.73;1.90;;;31.80;50.60;;;;;;4937415;29;20089;-83
2023/07/16 09:16:16;;;;;;;10.18;2.00;;;30.10;52.00;;;;;;4939563;29;20222;-82
2023/07/16 09:18:42;;;;;;;7.75;1.75;;;28.80;53.20;;;;;;4934551;29;20126;-85
2023/07/16 09:21:08;;;;;;;9.68;1.90;;;29.30;53.50;;;;;;4934684;29;20099;-82
2023/07/16 09:23:34;;;;;;;9.13;1.40;;;29.90;51.80;;;;;;4930915;29;20078;-80
2023/07/16 09:25:59;;;;;;;11.10;2.05;;;31.60;50.20;;;;;;4926275;29;20071;-82
2023/07/16 09:28:26;;;;;;;7.07;1.60;;;31.90;47.30;;;;;;4943513;29;20065;-82
2023/07/16 09:30:52;;;;;;;8.40;2.00;;;31.50;48.70;;;;;;4944301;28;20558;-82
2023/07/16 09:33:20;;;;;;;7.97;1.88;;;32.90;50.80;;;;;;4943148;29;20035;-83
2023/07/16 09:35:49;;;;;;;5.65;1.30;;;32.90;45.90;;;;;;4943734;29;21757;-84
2023/07/16 09:38:15;;;;;;;9.25;1.80;;;31.80;45.50;;;;;;4940534;29;20041;-82
2023/07/16 09:40:42;;;;;;;7.55;1.80;;;32.70;49.40;;;;;;4942142;29;20422;-84
2023/07/16 09:43:09;;;;;;;10.75;1.92;;;34.90;46.00;;;;;;4944531;29;20114;-83
2023/07/16 09:45:35;;;;;;;8.27;1.90;;;32.30;47.10;;;;;;4957856;28;20484;-81
2023/07/16 09:48:01;;;;;;;7.43;1.40;;;31.10;47.00;;;;;;4941344;29;20549;-84
2023/07/16 09:50:33;;;;;;;10.77;1.83;;;30.70;48.50;;;;;;4934474;29;20415;-82
2023/07/16 09:52:58;;;;;;;7.57;1.70;;;30.70;47.90;;;;;;4937452;29;20059;-82
2023/07/16 09:55:25;;;;;;;10.85;1.90;;;32.40;46.50;;;;;;4937578;29;20573;-82
2023/07/16 09:57:54;;;;;;;8.50;1.65;;;33.40;44.20;;;;;;4939057;29;20035;-83
2023/07/16 10:00:22;;;;;;;10.68;2.03;;;33.20;43.90;;;;;;4943851;29;20032;-81
2023/07/16 10:02:49;;;;;;;7.10;1.63;;;33.10;42.40;;;;;;4941634;29;20031;-83
2023/07/16 10:05:22;;;;;;;7.15;1.40;;;33.10;43.50;;;;;;4930259;29;20294;-81
2023/07/16 10:07:54;;;;;;;7.47;1.55;;;33.20;44.10;;;;;;4934338;29;20051;-81
2023/07/16 10:10:21;;;;;;;8.35;1.67;;;33.60;43.30;;;;;;4941478;29;20023;-82
2023/07/16 10:12:58;;;;;;;7.75;1.70;;;35.30;46.80;;;;;;4935316;29;20561;-80
2023/07/16 10:15:27;;;;;;;6.80;1.50;;;34.50;40.20;;;;;;4933951;29;20031;-81
2023/07/16 10:17:54;;;;;;;12.60;2.08;;;31.90;42.80;;;;;;4929906;29;20023;-80
2023/07/16 10:20:42;;;;;;;5.07;1.40;;;31.20;45.40;;;;;;4937723;29;20031;-82
2023/07/16 10:23:15;;;;;;;10.68;1.50;;;31.40;42.60;;;;;;4933671;29;20123;-80
2023/07/16 10:25:57;;;;;;;5.47;1.20;;;32.00;44.30;;;;;;4930751;29;20039;-82
2023/07/16 10:28:23;;;;;;;6.82;1.23;;;31.50;41.90;;;;;;4937628;29;20395;-82
2023/07/16 10:30:50;;;;;;;7.28;1.35;;;32.50;43.00;;;;;;4937285;29;20031;-82
2023/07/16 10:33:16;;;;;;;7.28;1.58;;;33.20;41.60;;;;;;4935991;29;20186;-83
2023/07/16 10:35:46;;;;;;;7.47;1.83;;;33.30;44.40;;;;;;4942339;28;20164;-82
2023/07/16 10:38:11;;;;;;;5.70;1.50;;;33.60;41.70;;;;;;4941046;29;20581;-84
2023/07/16 10:40:41;;;;;;;11.20;2.10;;;34.80;45.10;;;;;;4934085;29;20294;-80
2023/07/16 10:43:07;;;;;;;8.25;1.75;;;33.60;39.30;;;;;;4934735;29;20030;-80
2023/07/16 10:45:33;;;;;;;8.25;1.75;;;33.90;38.60;;;;;;4945703;29;20031;-83
2023/07/16 10:47:59;;;;;;;5.15;1.30;;;34.30;41.80;;;;;;4932559;29;20050;-80
2023/07/16 10:50:24;;;;;;;6.32;1.15;;;34.80;40.30;;;;;;4945875;29;20388;-82
2023/07/16 10:52:54;;;;;;;4.40;1.15;;;34.70;37.30;;;;;;4941690;29;20047;-82
2023/07/16 10:55:21;;;;;;;5.05;1.48;;;35.60;41.60;;;;;;4937118;28;20062;-82
2023/07/16 10:57:50;;;;;;;9.65;1.48;;;37.50;38.20;;;;;;4943498;29;20035;-81
2023/07/16 11:00:17;;;;;;;5.43;1.20;;;36.60;36.10;;;;;;4944672;28;20135;-83
2023/07/16 11:02:43;;;;;;;6.35;1.50;;;36.70;37.40;;;;;;4948033;29;20300;-83
2023/07/16 11:05:11;;;;;;;8.60;1.80;;;38.40;38.10;;;;;;4943051;29;20054;-83
2023/07/16 11:07:37;;;;;;;8.23;1.55;;;39.10;36.90;;;;;;4934203;29;20500;-82
2023/07/16 11:10:03;;;;;;;6.55;1.20;;;39.40;36.90;;;;;;4931758;29;20038;-82
2023/07/16 11:12:28;;;;;;;4.05;1.38;;;36.90;34.90;;;;;;4960934;28;20590;-83
2023/07/16 11:14:56;;;;;;;7.03;1.50;;;33.70;38.50;;;;;;4940759;29;20031;-82
2023/07/16 11:17:24;;;;;;;6.65;1.60;;;33.70;42.20;;;;;;4940354;29;20035;-80
2023/07/16 11:19:52;;;;;;;5.90;1.40;;;33.40;39.00;;;;;;4601049;28;10000166;-83
2023/07/16 11:22:18;;;;;;;7.03;1.58;;;33.90;40.40;;;;;;4939115;29;20035;-82
2023/07/16 11:24:46;;;;;;;10.50;1.83;;;33.70;38.80;;;;;;4940113;29;20396;-78
2023/07/16 11:27:28;;;;;;;9.07;1.75;;;31.80;42.90;;;;;;4926839;29;20039;-81
2023/07/16 11:29:55;;;;;;;7.85;1.60;;;31.60;42.30;;;;;;4942825;29;20031;-81
2023/07/16 11:32:31;;;;;;;5.57;1.67;;;31.70;43.90;;;;;;4939671;29;20035;-81
2023/07/16 11:34:59;;;;;;;8.20;1.70;;;31.80;46.00;;;;;;4959813;28;20042;-78
2023/07/16 11:37:26;;;;;;;7.18;1.80;;;30.10;43.70;;;;;;4946997;29;20565;-79
2023/07/16 11:39:58;;;;;;;9.57;1.90;;;28.90;45.90;;;;;;4941235;29;20027;-80
2023/07/16 11:42:35;;;;;;;12.23;2.15;;;27.40;48.40;;;;;;4947774;29;20067;-83
2023/07/16 11:45:02;;;;;;;7.05;1.88;;;26.50;53.60;;;;;;4943809;29;20522;-82
2023/07/16 11:47:28;;;;;;;9.95;2.00;;;26.50;55.00;;;;;;4941959;29;20415;-85
2023/07/16 11:49:54;;;;;;;12.07;2.20;;;26.90;53.50;;;;;;4946037;29;20035;-85
2023/07/16 11:52:22;;;;;;;11.38;1.98;;;26.60;57.00;;;;;;4945504;29;20063;-82
2023/07/16 11:54:51;;;;;;;9.87;2.17;;;27.00;53.40;;;;;;4609759;28;10000560;-84
2023/07/16 11:57:17;;;;;;;10.57;2.28;;;26.40;53.50;;;;;;4942762;28;20291;-86
2023/07/16 11:59:42;;;;;;;13.27;2.15;;;25.50;56.00;;;;;;4943552;29;20089;-86
2023/07/16 12:02:08;;;;;;;8.82;2.45;;;25.30;57.00;;;;;;4942114;29;20279;-87
2023/07/16 12:04:37;;;;;;;10.18;2.42;;;24.10;60.20;;;;;;4941345;29;20102;-85
2023/07/16 12:07:03;;;;;;;10.82;2.13;;;24.20;67.70;;;;;;4935153;29;20155;-88
2023/07/16 12:09:28;;;;;;;11.88;2.65;;;24.40;64.50;;;;;;4935552;29;20045;-87
2023/07/16 12:11:54;;;;;;;13.73;2.28;;;24.20;66.30;;;;;;4927468;29;20055;-88
2023/07/16 12:14:20;;;;;;;8.48;2.05;;;24.00;68.10;;;;;;4934240;29;20355;-88
2023/07/16 12:16:45;;;;;;;15.57;2.55;;;24.70;72.00;;;;;;4925313;29;20104;-86
2023/07/16 12:19:11;;;;;;;13.55;2.25;;;24.50;68.10;;;;;;4937658;29;20023;-85
2023/07/16 12:21:37;;;;;;;8.77;2.38;;;24.30;70.00;;;;;;4947484;29;20042;-88
2023/07/16 12:24:02;;;;;;;9.75;1.98;;;24.30;70.20;;;;;;4960417;28;20063;-85
2023/07/16 12:26:28;;;;;;;11.48;2.28;;;24.60;71.60;;;;;;4942872;28;20047;-84
2023/07/16 12:28:54;;;;;;;12.43;2.22;;;23.90;69.20;;;;;;4941993;29;20042;-86
2023/07/16 12:31:20;;;;;;;9.50;2.38;;;24.30;80.20;;;;;;4944124;29;20027;-86
2023/07/16 12:33:47;;;;;;;11.15;2.10;;;25.20;74.80;;;;;;4942731;29;20038;-85